Time;durP1;ratioP1;P1;durP2;ratioP2;P2;SDS_P1;SDS_P2;PMS_P1;PMS_P2;Temp;Humidity;BMP_temperature;BMP_pressure;BME280_temperature;BME280_humidity;BME280_pressure;Samples;Min_cycle;Max_cycle;Signal;HPM_P1;HPM_P2
2022/12/25 00:00:11;;;;;;;16.40;9.33;;;7.10;99.90;;;;;;5047951;28;20183;-59
2022/12/25 00:02:37;;;;;;;15.90;9.40;;;7.10;99.90;;;;;;5049470;28;20554;-59
2022/12/25 00:05:03;;;;;;;15.57;8.60;;;7.10;99.90;;;;;;5045218;28;20943;-60
2022/12/25 00:07:29;;;;;;;11.93;7.90;;;7.10;99.90;;;;;;5046834;28;20433;-59
2022/12/25 00:09:54;;;;;;;14.70;7.20;;;7.10;99.90;;;;;;5028923;28;20470;-60
2022/12/25 00:12:21;;;;;;;12.23;7.33;;;7.10;99.90;;;;;;5052968;28;20190;-59
2022/12/25 00:14:46;;;;;;;11.80;7.10;;;7.10;99.90;;;;;;5049469;28;20172;-60
2022/12/25 00:17:12;;;;;;;11.50;7.80;;;7.10;99.90;;;;;;5043224;28;20430;-59
2022/12/25 00:19:38;;;;;;;14.13;8.47;;;7.10;99.90;;;;;;5046274;28;20271;-59
2022/12/25 00:22:03;;;;;;;13.30;7.93;;;7.20;99.90;;;;;;5054177;28;20199;-60
2022/12/25 00:24:29;;;;;;;14.20;8.50;;;7.10;99.90;;;;;;5047225;28;20189;-59
2022/12/25 00:26:55;;;;;;;13.60;8.00;;;7.10;99.90;;;;;;5049626;28;20361;-60
2022/12/25 00:29:20;;;;;;;11.53;7.10;;;7.10;99.90;;;;;;5060188;28;20729;-60
2022/12/25 00:31:46;;;;;;;14.50;7.83;;;7.10;99.90;;;;;;5052611;28;20244;-59
2022/12/25 00:34:12;;;;;;;14.70;7.27;;;7.10;99.90;;;;;;5048313;28;20722;-59
2022/12/25 00:36:37;;;;;;;12.93;6.80;;;7.10;99.90;;;;;;5040930;28;20172;-59
2022/12/25 00:39:03;;;;;;;13.83;7.37;;;7.10;99.90;;;;;;5032228;28;20182;-59
2022/12/25 00:44:13;;;;;;;19.17;9.43;;;7.10;99.90;;;;;;5043860;28;20178;-59
2022/12/25 00:46:40;;;;;;;14.13;8.87;;;7.10;99.90;;;;;;5044006;28;20426;-59
2022/12/25 00:49:06;;;;;;;21.60;11.37;;;7.10;99.90;;;;;;5042135;28;20180;-59
2022/12/25 00:51:32;;;;;;;18.77;10.77;;;7.10;99.90;;;;;;5044973;28;20491;-59
2022/12/25 00:53:58;;;;;;;16.60;10.20;;;7.10;99.90;;;;;;5032816;28;20473;-59
2022/12/25 00:56:24;;;;;;;18.43;10.40;;;7.10;99.90;;;;;;5039236;28;20491;-58
2022/12/25 00:58:50;;;;;;;14.80;9.60;;;7.10;99.90;;;;;;5033552;28;20198;-59
2022/12/25 01:01:16;;;;;;;11.17;8.53;;;7.10;99.90;;;;;;5048629;28;20457;-59
2022/12/25 01:03:42;;;;;;;16.67;8.97;;;7.10;99.90;;;;;;5040227;28;20767;-59
2022/12/25 01:06:09;;;;;;;18.33;10.77;;;7.00;99.90;;;;;;5044861;28;20413;-59
2022/12/25 01:08:37;;;;;;;15.67;9.97;;;7.00;99.90;;;;;;5041748;28;20178;-60
2022/12/25 01:11:05;;;;;;;19.90;12.03;;;7.00;99.90;;;;;;5045656;28;20466;-60
2022/12/25 01:13:33;;;;;;;17.30;10.80;;;7.00;99.90;;;;;;5035486;28;20461;-59
2022/12/25 01:16:05;;;;;;;15.43;10.40;;;7.00;99.90;;;;;;5041504;28;20534;-59
2022/12/25 01:18:30;;;;;;;19.10;10.37;;;7.00;99.90;;;;;;5046135;28;20422;-59
2022/12/25 01:20:56;;;;;;;17.20;10.60;;;7.00;99.90;;;;;;5049814;28;20460;-59
2022/12/25 01:23:22;;;;;;;17.70;10.50;;;7.00;99.90;;;;;;5039281;28;20186;-59
2022/12/25 01:25:47;;;;;;;18.00;9.87;;;7.00;99.90;;;;;;5042004;28;20706;-59
2022/12/25 01:28:14;;;;;;;16.27;10.23;;;7.00;99.90;;;;;;5047886;28;20180;-59
2022/12/25 01:30:47;;;;;;;17.87;10.23;;;7.00;99.90;;;;;;5046925;28;20207;-59
2022/12/25 01:33:12;;;;;;;17.90;10.17;;;7.00;99.90;;;;;;5036514;28;20432;-60
2022/12/25 01:35:39;;;;;;;17.13;10.17;;;7.00;99.90;;;;;;5041782;28;20425;-60
2022/12/25 01:38:04;;;;;;;16.67;10.57;;;7.00;99.90;;;;;;5051465;28;20178;-59
2022/12/25 01:40:33;;;;;;;16.17;9.60;;;7.00;99.90;;;;;;5050754;28;20536;-61
2022/12/25 01:42:59;;;;;;;17.23;9.60;;;7.00;99.90;;;;;;5043405;28;20195;-60
2022/12/25 01:45:46;;;;;;;18.53;11.47;;;7.00;99.90;;;;;;5043918;28;20885;-60
2022/12/25 01:48:20;;;;;;;19.60;11.00;;;7.10;99.90;;;;;;5032172;28;20698;-60
2022/12/25 01:50:54;;;;;;;20.70;10.30;;;7.00;99.90;;;;;;5046303;28;20491;-59
2022/12/25 01:53:20;;;;;;;20.10;10.50;;;7.10;99.90;;;;;;5048350;28;20429;-60
2022/12/25 01:55:49;;;;;;;16.37;9.60;;;7.10;99.90;;;;;;5044067;28;20966;-60
2022/12/25 01:58:16;;;;;;;19.53;10.50;;;7.10;99.90;;;;;;5042945;28;20421;-60
2022/12/25 02:00:42;;;;;;;20.17;12.30;;;7.10;99.90;;;;;;5043228;28;20409;-58
2022/12/25 02:03:08;;;;;;;20.10;11.83;;;7.10;99.90;;;;;;5047212;28;20536;-59
2022/12/25 02:05:34;;;;;;;20.50;12.60;;;7.10;99.90;;;;;;5039326;28;20274;-59
2022/12/25 02:08:06;;;;;;;20.10;11.60;;;7.00;99.90;;;;;;5058196;28;20180;-59
2022/12/25 02:10:32;;;;;;;20.53;11.37;;;7.00;99.90;;;;;;5048050;28;20550;-59
2022/12/25 02:12:59;;;;;;;18.70;12.07;;;7.00;99.90;;;;;;5049611;28;20977;-59
2022/12/25 02:15:34;;;;;;;21.57;11.87;;;7.00;99.90;;;;;;5044993;28;20262;-59
2022/12/25 02:18:10;;;;;;;17.87;11.30;;;7.00;99.90;;;;;;5049775;28;20471;-59
2022/12/25 02:20:54;;;;;;;17.80;11.27;;;7.00;99.90;;;;;;5047612;28;21132;-60
2022/12/25 02:23:55;;;;;;;22.00;12.20;;;7.00;99.90;;;;;;5041993;28;20439;-59
2022/12/25 02:26:29;;;;;;;21.60;11.60;;;7.00;99.90;;;;;;5034210;28;20441;-60
2022/12/25 02:29:21;;;;;;;21.27;11.17;;;7.00;99.90;;;;;;5045454;28;20514;-60
2022/12/25 02:31:56;;;;;;;19.97;11.50;;;7.00;99.90;;;;;;5041269;28;20458;-60
2022/12/25 02:34:36;;;;;;;17.90;9.23;;;7.00;99.90;;;;;;5041073;28;20521;-59
2022/12/25 02:37:11;;;;;;;13.77;8.20;;;7.00;99.90;;;;;;5048522;28;20517;-59
2022/12/25 02:39:56;;;;;;;14.50;8.33;;;7.00;99.90;;;;;;5035312;28;20999;-60
2022/12/25 03:08:07;;;;;;;20.20;10.00;;;7.00;99.90;;;;;;5038182;28;20790;-60
2022/12/25 03:13:24;;;;;;;17.40;9.97;;;7.00;99.90;;;;;;5042949;28;20534;-59
2022/12/25 03:18:35;;;;;;;18.53;9.50;;;6.90;99.90;;;;;;5044456;28;20896;-59
2022/12/25 03:26:53;;;;;;;20.37;10.00;;;6.90;99.90;;;;;;5019302;28;20521;-59
2022/12/25 03:32:17;;;;;;;15.00;9.80;;;6.90;99.90;;;;;;5037551;28;20539;-59
2022/12/25 04:36:33;;;;;;;17.17;9.40;;;6.80;99.90;;;;;;5045047;28;20432;-58
2022/12/25 04:38:59;;;;;;;14.27;9.33;;;6.80;99.90;;;;;;5041916;28;20422;-59
2022/12/25 04:41:25;;;;;;;14.90;9.17;;;6.80;99.90;;;;;;5046742;28;20697;-59
2022/12/25 04:43:50;;;;;;;15.13;8.87;;;6.80;99.90;;;;;;5038569;28;20194;-59
2022/12/25 04:46:16;;;;;;;17.10;8.40;;;6.80;99.90;;;;;;5038519;28;20214;-59
2022/12/25 04:48:41;;;;;;;13.90;8.23;;;6.80;99.90;;;;;;5036032;28;20265;-59
2022/12/25 04:51:15;;;;;;;17.67;8.30;;;6.80;99.90;;;;;;5041014;28;20245;-59
2022/12/25 04:53:42;;;;;;;17.70;8.07;;;6.80;99.90;;;;;;5045108;28;20168;-59
2022/12/25 04:56:08;;;;;;;15.17;8.40;;;6.80;99.90;;;;;;5043279;28;20429;-58
2022/12/25 04:58:33;;;;;;;15.90;8.97;;;6.80;99.90;;;;;;5037198;28;20890;-59
2022/12/25 05:01:01;;;;;;;14.87;8.37;;;6.80;99.90;;;;;;5046102;28;20269;-59
2022/12/25 05:03:27;;;;;;;16.53;8.07;;;6.80;99.90;;;;;;5036827;28;20190;-59
2022/12/25 05:05:53;;;;;;;14.23;8.00;;;6.80;99.90;;;;;;5038553;28;20432;-58
2022/12/25 05:08:18;;;;;;;15.97;8.57;;;6.80;99.90;;;;;;5049215;28;20606;-59
2022/12/25 05:10:44;;;;;;;13.70;7.60;;;6.80;99.90;;;;;;5041428;28;20220;-58
2022/12/25 05:13:10;;;;;;;15.70;7.80;;;6.70;99.90;;;;;;5037193;28;20184;-59
2022/12/25 05:15:38;;;;;;;14.83;9.07;;;6.70;99.90;;;;;;5039842;28;20175;-59
2022/12/25 05:18:04;;;;;;;19.13;9.63;;;6.70;99.90;;;;;;5032342;28;20276;-59
2022/12/25 05:20:30;;;;;;;13.83;9.20;;;6.70;99.90;;;;;;5030739;28;21013;-60
2022/12/25 05:22:55;;;;;;;17.07;8.37;;;6.70;99.90;;;;;;5044544;28;20210;-59
2022/12/25 05:25:21;;;;;;;15.90;8.93;;;6.70;99.90;;;;;;5045139;28;20272;-58
2022/12/25 05:27:46;;;;;;;17.50;8.00;;;6.70;99.90;;;;;;5055932;28;20183;-59
2022/12/25 05:30:12;;;;;;;13.00;7.80;;;6.70;99.90;;;;;;5048393;28;20199;-59
2022/12/25 05:32:38;;;;;;;13.60;8.20;;;6.70;99.90;;;;;;5045321;28;20227;-60
2022/12/25 05:35:04;;;;;;;15.10;7.80;;;6.70;99.90;;;;;;5035850;28;20210;-59
2022/12/25 05:37:29;;;;;;;13.73;7.70;;;6.70;99.90;;;;;;5029379;28;20172;-60
2022/12/25 05:39:55;;;;;;;13.80;7.80;;;6.70;99.90;;;;;;5038836;28;20230;-59
2022/12/25 05:42:21;;;;;;;20.10;8.90;;;6.70;99.90;;;;;;5038473;28;20282;-60
2022/12/25 05:44:46;;;;;;;14.00;8.50;;;6.70;99.90;;;;;;5036858;28;20225;-60
2022/12/25 05:47:12;;;;;;;15.27;8.87;;;6.70;99.90;;;;;;5041508;28;20464;-60
2022/12/25 05:49:38;;;;;;;17.57;9.03;;;6.60;99.90;;;;;;5037171;28;20195;-58
2022/12/25 05:52:03;;;;;;;19.20;9.80;;;6.60;99.90;;;;;;5050886;28;20268;-59
2022/12/25 05:54:29;;;;;;;19.03;9.37;;;6.60;99.90;;;;;;5035789;28;20628;-59
2022/12/25 05:56:54;;;;;;;15.40;9.10;;;6.60;99.90;;;;;;5042033;28;20694;-59
2022/12/25 05:59:20;;;;;;;15.50;7.90;;;6.60;99.90;;;;;;5032853;28;20222;-59
2022/12/25 06:01:46;;;;;;;16.43;8.00;;;6.50;99.90;;;;;;5034249;28;20713;-61
2022/12/25 06:04:12;;;;;;;18.60;9.00;;;6.50;99.90;;;;;;5041556;28;20194;-58
2022/12/25 06:06:38;;;;;;;16.73;8.10;;;6.40;99.90;;;;;;5037371;28;20522;-59
2022/12/25 06:09:03;;;;;;;14.07;7.97;;;6.40;99.90;;;;;;5044147;28;20224;-59
2022/12/25 06:11:29;;;;;;;14.63;8.27;;;6.40;99.90;;;;;;5035526;28;20211;-59
2022/12/25 06:13:54;;;;;;;21.73;9.13;;;6.40;99.90;;;;;;5040302;28;20228;-59
2022/12/25 06:16:20;;;;;;;21.23;9.40;;;6.40;99.90;;;;;;5048156;28;20183;-59
2022/12/25 06:18:49;;;;;;;17.00;8.40;;;6.30;99.90;;;;;;5051114;28;20262;-58
2022/12/25 06:21:15;;;;;;;18.87;9.40;;;6.30;99.90;;;;;;5039301;28;20234;-58
2022/12/25 06:23:41;;;;;;;15.07;8.03;;;6.30;99.90;;;;;;5038885;28;20472;-60
2022/12/25 06:26:09;;;;;;;18.23;9.97;;;6.30;99.90;;;;;;5039284;28;20805;-60
2022/12/25 06:28:35;;;;;;;17.13;8.70;;;6.30;99.90;;;;;;5048212;28;20433;-59
2022/12/25 06:31:08;;;;;;;16.33;8.73;;;6.30;99.90;;;;;;5036296;28;20473;-59
2022/12/25 06:33:34;;;;;;;15.67;8.60;;;6.30;99.90;;;;;;5045082;28;20184;-59
2022/12/25 06:36:07;;;;;;;67.33;10.80;;;6.30;99.90;;;;;;5038313;28;20436;-60
2022/12/25 06:38:34;;;;;;;104.17;12.20;;;6.30;99.90;;;;;;5039170;28;20481;-59
2022/12/25 06:41:07;;;;;;;93.67;11.63;;;6.30;99.90;;;;;;5036925;28;20474;-58
2022/12/25 06:43:33;;;;;;;202.43;14.30;;;6.30;99.90;;;;;;5040841;28;20430;-59
2022/12/25 06:46:06;;;;;;;141.53;13.23;;;6.30;99.90;;;;;;5045451;28;20437;-59
2022/12/25 06:48:33;;;;;;;184.07;13.60;;;6.40;99.90;;;;;;5047965;28;20178;-59
2022/12/25 06:50:59;;;;;;;102.57;9.57;;;6.40;99.90;;;;;;5036864;28;20481;-60
2022/12/25 06:53:25;;;;;;;140.50;11.80;;;6.40;99.90;;;;;;5036110;28;21475;-59
2022/12/25 06:55:51;;;;;;;215.50;14.53;;;6.40;99.90;;;;;;5038669;28;20437;-59
2022/12/25 06:58:16;;;;;;;75.60;10.30;;;6.40;99.90;;;;;;5050580;28;20437;-59
2022/12/25 07:00:42;;;;;;;153.67;13.43;;;6.30;99.90;;;;;;5035631;28;20213;-59
2022/12/25 07:03:08;;;;;;;109.07;10.80;;;6.40;99.90;;;;;;5040144;28;20191;-60
2022/12/25 07:05:33;;;;;;;188.10;14.23;;;6.40;99.90;;;;;;5043566;28;20183;-59
2022/12/25 07:07:59;;;;;;;135.93;12.10;;;6.30;99.90;;;;;;5036168;28;20466;-60
2022/12/25 07:10:25;;;;;;;78.53;9.97;;;6.30;99.90;;;;;;5044498;28;20198;-60
2022/12/25 07:12:50;;;;;;;124.73;12.70;;;6.30;99.90;;;;;;5048876;28;20226;-60
2022/12/25 07:15:16;;;;;;;112.07;12.27;;;6.30;99.90;;;;;;5028411;28;20190;-60
2022/12/25 07:17:42;;;;;;;140.73;12.53;;;6.30;99.90;;;;;;5059984;28;20550;-59
2022/12/25 07:20:08;;;;;;;112.57;12.17;;;6.40;99.90;;;;;;5034751;28;20192;-59
2022/12/25 07:22:34;;;;;;;124.13;11.80;;;6.30;99.90;;;;;;5051603;28;21076;-59
2022/12/25 07:24:59;;;;;;;107.10;11.13;;;6.30;99.90;;;;;;5040034;28;20476;-60
2022/12/25 07:27:25;;;;;;;119.17;13.23;;;6.30;99.90;;;;;;5040682;28;20179;-59
2022/12/25 07:29:51;;;;;;;127.10;12.53;;;6.30;99.90;;;;;;5041370;28;20279;-62
2022/12/25 07:32:16;;;;;;;82.80;11.70;;;6.30;99.90;;;;;;5041983;28;20541;-59
2022/12/25 07:34:42;;;;;;;109.03;11.63;;;6.30;99.90;;;;;;5043118;28;20198;-59
2022/12/25 07:37:08;;;;;;;65.97;11.50;;;6.30;99.90;;;;;;5036039;28;20187;-62
2022/12/25 07:39:34;;;;;;;86.37;11.90;;;6.30;99.90;;;;;;5035154;28;20219;-60
2022/12/25 07:41:59;;;;;;;107.40;11.40;;;6.30;99.90;;;;;;5039844;28;20750;-59
2022/12/25 07:44:25;;;;;;;83.07;10.30;;;6.20;99.90;;;;;;5046705;28;20440;-59
2022/12/25 07:46:51;;;;;;;93.87;11.30;;;6.20;99.90;;;;;;5031990;28;20913;-59
2022/12/25 07:49:16;;;;;;;86.17;10.63;;;6.20;99.90;;;;;;5032863;28;20184;-60
2022/12/25 07:51:42;;;;;;;90.27;10.47;;;6.20;99.90;;;;;;5025006;28;20199;-59
2022/12/25 07:54:08;;;;;;;102.27;10.30;;;6.20;99.90;;;;;;5030167;28;20673;-59
2022/12/25 07:56:33;;;;;;;110.33;10.73;;;6.20;99.90;;;;;;5041468;28;20182;-58
2022/12/25 07:58:59;;;;;;;85.90;8.27;;;6.20;99.90;;;;;;5037843;28;20176;-59
2022/12/25 08:01:26;;;;;;;45.10;8.47;;;6.20;99.90;;;;;;5034234;28;20215;-59
2022/12/25 08:03:57;;;;;;;67.47;8.67;;;6.10;99.90;;;;;;5040269;28;20179;-59
2022/12/25 08:06:30;;;;;;;53.17;7.70;;;6.20;99.90;;;;;;5033614;28;20426;-59
2022/12/25 08:09:00;;;;;;;63.53;6.67;;;6.20;99.90;;;;;;5030417;28;20460;-59
2022/12/25 08:11:26;;;;;;;51.47;6.87;;;6.10;99.90;;;;;;5030715;28;21562;-60
2022/12/25 08:13:52;;;;;;;31.17;6.33;;;6.10;99.90;;;;;;5028961;28;20957;-58
2022/12/25 08:16:17;;;;;;;35.47;6.27;;;6.10;99.90;;;;;;5038315;28;20253;-59
2022/12/25 08:18:43;;;;;;;30.47;7.20;;;6.10;99.90;;;;;;5035681;28;20703;-59
2022/12/25 08:21:11;;;;;;;28.57;6.80;;;6.10;99.90;;;;;;5030615;28;20203;-59
2022/12/25 08:23:40;;;;;;;54.33;6.70;;;6.10;99.90;;;;;;5034504;28;20191;-59
2022/12/25 08:26:07;;;;;;;33.50;7.80;;;6.10;99.90;;;;;;5034638;28;20434;-59
2022/12/25 08:28:34;;;;;;;34.90;7.67;;;6.10;99.90;;;;;;5032397;28;20452;-59
2022/12/25 08:31:06;;;;;;;34.90;8.20;;;6.10;99.90;;;;;;5042665;28;20489;-59
2022/12/25 08:33:32;;;;;;;30.97;7.30;;;6.10;99.90;;;;;;5028871;28;20460;-59
2022/12/25 08:36:02;;;;;;;22.57;8.00;;;6.10;99.90;;;;;;5032221;28;20552;-59
2022/12/25 08:38:28;;;;;;;52.70;7.93;;;6.10;99.90;;;;;;5034696;28;20244;-59
2022/12/25 08:40:53;;;;;;;37.93;7.07;;;6.20;99.90;;;;;;5038808;28;20524;-59
2022/12/25 08:43:19;;;;;;;41.17;8.00;;;6.20;99.90;;;;;;5040078;28;22320;-59
2022/12/25 08:45:46;;;;;;;31.07;7.30;;;6.20;99.90;;;;;;5036519;28;20195;-58
2022/12/25 08:48:12;;;;;;;60.60;8.23;;;6.20;99.90;;;;;;5038216;28;20320;-59
2022/12/25 08:50:37;;;;;;;82.47;8.57;;;6.20;99.90;;;;;;5032445;28;20544;-59
2022/12/25 08:53:03;;;;;;;54.47;7.13;;;6.20;99.90;;;;;;5030905;28;20194;-59
2022/12/25 08:55:29;;;;;;;65.20;7.30;;;6.20;99.90;;;;;;5034283;28;20175;-61
2022/12/25 08:57:54;;;;;;;51.17;7.73;;;6.20;99.90;;;;;;5041348;28;20210;-60
2022/12/25 09:00:20;;;;;;;32.20;6.90;;;6.20;99.90;;;;;;5036566;28;20438;-62
2022/12/25 09:02:46;;;;;;;37.90;7.00;;;6.20;99.90;;;;;;5034737;28;20202;-60
2022/12/25 09:05:12;;;;;;;33.53;7.30;;;6.20;99.90;;;;;;5031306;28;20179;-59
2022/12/25 09:07:37;;;;;;;61.40;6.73;;;6.20;99.90;;;;;;5031366;28;20564;-60
2022/12/25 09:10:03;;;;;;;118.40;10.57;;;6.20;99.90;;;;;;5039120;28;20223;-60
2022/12/25 09:12:29;;;;;;;85.93;9.43;;;6.20;99.90;;;;;;5039109;28;20207;-60
2022/12/25 09:14:54;;;;;;;38.87;6.57;;;6.20;99.90;;;;;;5040772;28;20183;-59
2022/12/25 09:17:20;;;;;;;28.33;7.37;;;6.20;99.90;;;;;;5032312;28;20177;-61
2022/12/25 09:19:46;;;;;;;18.10;6.70;;;6.20;99.90;;;;;;5030811;28;20651;-60
2022/12/25 09:22:11;;;;;;;62.83;7.37;;;6.20;99.90;;;;;;5031987;28;20229;-60
2022/12/25 09:24:38;;;;;;;56.97;7.03;;;6.30;99.90;;;;;;5035728;28;20176;-59
2022/12/25 09:27:04;;;;;;;47.03;7.20;;;6.20;99.90;;;;;;5029703;28;20234;-60
2022/12/25 09:29:29;;;;;;;47.37;7.73;;;6.30;99.90;;;;;;5030002;28;20424;-60
2022/12/25 09:31:55;;;;;;;44.90;6.10;;;6.30;99.90;;;;;;5031258;28;21714;-60
2022/12/25 09:34:21;;;;;;;40.13;6.53;;;6.30;99.90;;;;;;5028353;28;20247;-60
2022/12/25 09:36:46;;;;;;;28.83;5.60;;;6.40;99.90;;;;;;5038886;28;20310;-60
2022/12/25 09:39:12;;;;;;;50.83;5.90;;;6.40;99.90;;;;;;5037356;28;20209;-60
2022/12/25 09:41:58;;;;;;;27.63;5.50;;;6.40;99.90;;;;;;5035958;28;20294;-60
2022/12/25 09:44:28;;;;;;;40.30;5.70;;;6.50;99.90;;;;;;5039088;28;20625;-60
2022/12/25 09:47:01;;;;;;;19.37;5.47;;;6.50;99.90;;;;;;5036320;28;20504;-59
2022/12/25 09:49:43;;;;;;;65.87;6.10;;;6.50;99.90;;;;;;5035253;28;20460;-59
2022/12/25 09:52:16;;;;;;;61.30;5.70;;;6.50;99.90;;;;;;5048570;28;20468;-59
2022/12/25 09:54:53;;;;;;;72.80;6.70;;;6.50;99.90;;;;;;5032353;28;21485;-60
2022/12/25 09:57:19;;;;;;;78.20;6.90;;;6.50;99.90;;;;;;5032443;28;20954;-60
2022/12/25 09:59:46;;;;;;;112.90;8.67;;;6.50;99.90;;;;;;5033752;28;20449;-59
2022/12/25 10:02:26;;;;;;;14.47;4.33;;;6.50;99.90;;;;;;5033091;28;20210;-58
2022/12/25 10:05:04;;;;;;;17.43;4.20;;;6.60;99.90;;;;;;5032541;28;20428;-59
2022/12/25 10:07:42;;;;;;;48.33;5.33;;;6.60;99.90;;;;;;5021783;28;20441;-60
2022/12/25 10:10:27;;;;;;;4.20;3.17;;;6.70;99.90;;;;;;5028317;28;20506;-59
2022/12/25 10:13:25;;;;;;;12.40;4.00;;;6.70;99.90;;;;;;5029507;28;20457;-60
2022/12/25 10:16:04;;;;;;;9.97;4.17;;;6.90;99.90;;;;;;4990902;28;20462;-60
2022/12/25 10:18:46;;;;;;;17.57;4.40;;;7.00;99.90;;;;;;5039325;28;20644;-60
2022/12/25 10:21:14;;;;;;;51.43;5.00;;;7.00;99.90;;;;;;5036467;28;20464;-60
2022/12/25 10:24:14;;;;;;;24.47;4.30;;;7.10;99.90;;;;;;5036584;28;20525;-60
2022/12/25 10:26:40;;;;;;;18.07;4.73;;;7.10;99.90;;;;;;5028672;28;20433;-61
2022/12/25 10:29:13;;;;;;;18.07;4.03;;;7.20;99.90;;;;;;5035956;28;20433;-60
2022/12/25 10:31:40;;;;;;;6.40;4.00;;;7.20;99.90;;;;;;5043767;28;20208;-59
2022/12/25 10:34:10;;;;;;;20.90;4.33;;;7.30;99.90;;;;;;5039118;28;21200;-60
2022/12/25 10:36:36;;;;;;;21.50;4.80;;;7.20;99.90;;;;;;5036155;28;20840;-60
2022/12/25 10:39:02;;;;;;;13.63;5.10;;;7.20;99.90;;;;;;5036453;28;20433;-60
2022/12/25 10:42:05;;;;;;;19.13;5.53;;;7.20;99.90;;;;;;5036221;28;20844;-60
2022/12/25 10:44:33;;;;;;;25.03;6.33;;;7.20;99.90;;;;;;5032342;28;21142;-62
2022/12/25 10:47:00;;;;;;;20.03;5.60;;;7.20;99.90;;;;;;5025510;28;20494;-60
2022/12/25 10:49:38;;;;;;;54.93;6.43;;;7.30;99.90;;;;;;5032252;28;20445;-61
2022/12/25 10:52:19;;;;;;;11.47;5.30;;;7.30;99.90;;;;;;5029054;28;20450;-59
2022/12/25 10:54:45;;;;;;;30.70;6.67;;;7.40;99.90;;;;;;5035686;28;20426;-58
2022/12/25 10:57:16;;;;;;;39.93;7.80;;;7.40;99.90;;;;;;5031388;28;21174;-60
2022/12/25 10:59:46;;;;;;;13.97;7.07;;;7.50;99.90;;;;;;5039202;28;20179;-60
2022/12/25 11:02:14;;;;;;;42.67;7.43;;;7.60;99.90;;;;;;5035761;28;20457;-60
2022/12/25 11:04:40;;;;;;;29.37;6.70;;;7.60;99.90;;;;;;5038604;28;20421;-60
2022/12/25 11:07:12;;;;;;;20.33;7.10;;;7.70;99.90;;;;;;5037828;28;20945;-59
2022/12/25 11:09:38;;;;;;;26.47;6.37;;;7.70;99.90;;;;;;5034925;28;20176;-59
2022/12/25 11:12:04;;;;;;;9.33;5.70;;;7.80;99.90;;;;;;5035025;28;21584;-59
2022/12/25 11:14:30;;;;;;;11.90;5.83;;;7.90;99.90;;;;;;5035352;28;20532;-59
2022/12/25 11:17:07;;;;;;;15.90;6.10;;;7.90;99.90;;;;;;5049969;28;20524;-64
2022/12/25 11:19:32;;;;;;;11.03;6.40;;;7.90;99.90;;;;;;5035761;28;20189;-60
2022/12/25 11:22:00;;;;;;;8.73;6.13;;;8.10;99.90;;;;;;5030875;28;23117;-59
2022/12/25 11:24:28;;;;;;;9.40;6.40;;;8.10;99.90;;;;;;5034780;28;20179;-59
2022/12/25 11:27:00;;;;;;;8.90;6.77;;;8.20;99.90;;;;;;5034436;28;21100;-60
2022/12/25 11:29:43;;;;;;;8.33;6.83;;;8.30;99.90;;;;;;5021194;28;20617;-60
2022/12/25 11:32:19;;;;;;;8.07;6.20;;;8.40;99.90;;;;;;5050424;28;20457;-59
2022/12/25 11:34:47;;;;;;;10.23;6.47;;;8.50;99.90;;;;;;5028982;28;20432;-59
2022/12/25 11:37:40;;;;;;;9.60;6.63;;;8.70;99.90;;;;;;5028941;28;20867;-60
2022/12/25 11:40:51;;;;;;;10.30;7.30;;;8.70;99.90;;;;;;5036914;28;20476;-61
2022/12/25 11:43:46;;;;;;;10.73;7.87;;;8.70;99.90;;;;;;4978775;28;20439;-60
2022/12/25 11:46:30;;;;;;;11.13;8.00;;;8.80;99.90;;;;;;4972435;28;20475;-60
2022/12/25 11:49:01;;;;;;;10.57;7.37;;;8.80;99.90;;;;;;5032587;28;20438;-61
2022/12/25 11:51:32;;;;;;;11.80;7.60;;;8.80;99.90;;;;;;5037112;28;20483;-61
2022/12/25 11:54:30;;;;;;;10.10;7.50;;;8.80;99.90;;;;;;5034019;28;20720;-60
2022/12/25 11:57:02;;;;;;;9.93;7.23;;;8.70;99.90;;;;;;5020620;28;20440;-60
2022/12/25 11:59:52;;;;;;;8.80;6.17;;;8.70;99.90;;;;;;5036095;28;20421;-61
2022/12/25 12:02:47;;;;;;;9.20;6.17;;;8.70;99.90;;;;;;5029349;28;20908;-61
2022/12/25 12:05:15;;;;;;;10.80;7.80;;;8.70;99.90;;;;;;5022076;28;20465;-61
2022/12/25 12:08:01;;;;;;;9.77;6.50;;;8.70;99.90;;;;;;5031505;28;20470;-58
2022/12/25 12:10:32;;;;;;;9.83;6.33;;;8.70;99.90;;;;;;5026041;28;20886;-60
2022/12/25 12:13:30;;;;;;;7.80;6.33;;;8.80;99.90;;;;;;5035336;28;20449;-57
2022/12/25 12:15:57;;;;;;;9.50;7.07;;;8.80;99.90;;;;;;5000170;28;20827;-59
2022/12/25 12:18:29;;;;;;;8.30;6.33;;;8.90;99.90;;;;;;5024673;28;21087;-59
2022/12/25 12:21:16;;;;;;;12.60;7.30;;;9.00;99.90;;;;;;5031194;28;22513;-60
2022/12/25 12:24:03;;;;;;;10.13;6.10;;;9.00;99.90;;;;;;5027460;28;20525;-59
2022/12/25 12:26:35;;;;;;;10.47;7.33;;;9.10;99.90;;;;;;5026803;28;20429;-60
2022/12/25 12:29:02;;;;;;;9.00;7.00;;;9.10;99.90;;;;;;5027982;28;21057;-59
2022/12/25 12:31:41;;;;;;;11.47;7.17;;;9.20;99.90;;;;;;5029980;28;20465;-59
2022/12/25 12:34:24;;;;;;;8.30;6.47;;;9.20;99.90;;;;;;5031700;28;20619;-60
2022/12/25 12:36:52;;;;;;;9.00;6.83;;;9.20;99.90;;;;;;5031270;28;21297;-59
2022/12/25 12:39:25;;;;;;;12.67;7.00;;;9.20;99.90;;;;;;5030380;28;20430;-60
2022/12/25 12:41:51;;;;;;;11.40;7.17;;;9.30;99.90;;;;;;5033835;28;20484;-59
2022/12/25 12:44:21;;;;;;;10.37;7.43;;;9.30;99.90;;;;;;5022799;28;20441;-61
2022/12/25 12:46:55;;;;;;;8.30;6.13;;;9.30;99.90;;;;;;5027512;28;20433;-64
2022/12/25 12:49:20;;;;;;;12.80;6.70;;;9.30;99.90;;;;;;5025854;28;20454;-59
2022/12/25 12:51:47;;;;;;;8.80;6.67;;;9.30;99.90;;;;;;5037408;28;20494;-59
2022/12/25 12:54:26;;;;;;;10.60;6.73;;;9.30;99.90;;;;;;5031091;28;20203;-58
2022/12/25 12:56:55;;;;;;;11.20;7.57;;;9.30;99.90;;;;;;5032405;28;20465;-59
2022/12/25 12:59:22;;;;;;;9.83;6.90;;;9.30;99.90;;;;;;5033659;28;20427;-58
2022/12/25 13:02:05;;;;;;;8.40;6.80;;;9.40;99.90;;;;;;5020049;28;20559;-59
2022/12/25 13:04:48;;;;;;;10.77;7.20;;;9.30;99.90;;;;;;5031120;28;20434;-59
2022/12/25 13:07:50;;;;;;;9.17;7.43;;;9.30;99.90;;;;;;5035387;28;20434;-59
2022/12/25 13:10:37;;;;;;;12.13;8.20;;;9.40;99.90;;;;;;5029023;28;21236;-60
2022/12/25 13:13:17;;;;;;;12.30;8.77;;;9.40;99.90;;;;;;5037304;28;20445;-59
2022/12/25 13:15:46;;;;;;;15.13;8.50;;;9.40;99.90;;;;;;5035203;28;20430;-59
2022/12/25 13:18:13;;;;;;;12.93;8.37;;;9.50;99.90;;;;;;5033238;28;21722;-59
2022/12/25 13:20:55;;;;;;;13.50;9.60;;;9.50;99.90;;;;;;5028037;28;20451;-59
2022/12/25 13:23:32;;;;;;;11.80;8.00;;;9.60;99.90;;;;;;5030859;28;21071;-59
2022/12/25 13:26:10;;;;;;;12.30;7.43;;;9.70;99.90;;;;;;5034647;28;20937;-59
2022/12/25 13:28:36;;;;;;;7.70;6.10;;;9.80;99.90;;;;;;5023257;28;20494;-59
2022/12/25 13:31:12;;;;;;;7.43;4.23;;;9.90;99.90;;;;;;5027200;28;20461;-60
2022/12/25 13:33:39;;;;;;;5.13;3.90;;;9.90;99.90;;;;;;5023906;28;20429;-59
2022/12/25 13:36:10;;;;;;;9.00;3.63;;;10.00;99.90;;;;;;5027167;28;20517;-60
2022/12/25 13:38:36;;;;;;;4.97;3.50;;;10.00;99.90;;;;;;5025152;28;20441;-60
2022/12/25 13:43:47;;;;;;;3.20;2.70;;;10.00;99.90;;;;;;5031015;28;20467;-61
2022/12/25 13:46:14;;;;;;;3.47;2.90;;;10.00;99.90;;;;;;5029433;28;20846;-59
2022/12/25 13:48:40;;;;;;;3.33;3.00;;;9.90;99.90;;;;;;5028230;28;20918;-60
2022/12/25 13:51:14;;;;;;;4.07;2.90;;;9.80;99.90;;;;;;5027793;28;20480;-58
2022/12/25 13:53:40;;;;;;;3.83;3.03;;;9.80;99.90;;;;;;5025021;28;20428;-59
2022/12/25 13:56:11;;;;;;;3.57;2.90;;;9.80;99.90;;;;;;5030916;28;20449;-60
2022/12/25 13:58:38;;;;;;;3.10;2.80;;;9.80;99.90;;;;;;5036485;28;20194;-58
2022/12/25 14:01:05;;;;;;;3.03;2.60;;;9.80;99.90;;;;;;5033387;28;20495;-59
2022/12/25 14:03:33;;;;;;;10.00;6.83;;;9.80;99.90;;;;;;5031233;28;20533;-59
2022/12/25 14:06:05;;;;;;;5.70;3.73;;;9.80;99.90;;;;;;5038539;28;20437;-59
2022/12/25 14:08:34;;;;;;;6.87;3.13;;;9.80;99.90;;;;;;5032731;28;20468;-60
2022/12/25 14:11:03;;;;;;;5.00;3.80;;;9.80;99.90;;;;;;5036940;28;20466;-59
2022/12/25 14:13:30;;;;;;;3.30;3.00;;;9.80;99.90;;;;;;5041062;28;20434;-59
2022/12/25 14:15:57;;;;;;;3.57;3.23;;;9.80;99.90;;;;;;5033684;28;20433;-59
2022/12/25 14:18:24;;;;;;;3.83;2.97;;;9.80;99.90;;;;;;5039321;28;20805;-59
2022/12/25 14:21:15;;;;;;;4.80;3.03;;;9.80;99.90;;;;;;5037735;28;20445;-60
2022/12/25 14:23:40;;;;;;;3.80;3.40;;;9.80;99.90;;;;;;5032784;28;20491;-60
2022/12/25 14:26:13;;;;;;;4.80;3.47;;;9.80;99.90;;;;;;5031613;28;20441;-60
2022/12/25 14:28:38;;;;;;;3.80;3.17;;;9.70;99.90;;;;;;5030121;28;20211;-59
2022/12/25 14:31:04;;;;;;;3.90;3.23;;;9.70;99.90;;;;;;5037562;28;20618;-60
2022/12/25 14:33:36;;;;;;;5.17;4.33;;;9.70;99.90;;;;;;5036887;28;20176;-59
2022/12/25 14:36:03;;;;;;;6.07;4.50;;;9.70;99.90;;;;;;5031041;28;20263;-60
2022/12/25 14:38:33;;;;;;;7.53;5.00;;;9.70;99.90;;;;;;5037986;28;20449;-59
2022/12/25 14:41:32;;;;;;;8.00;4.30;;;9.70;99.90;;;;;;5032917;28;20437;-60
2022/12/25 14:43:59;;;;;;;4.97;3.40;;;9.60;99.90;;;;;;5033184;28;20434;-60
2022/12/25 14:46:27;;;;;;;5.53;3.60;;;9.50;99.90;;;;;;5037142;28;20441;-60